LFMK/CCF METAR and TAF weather

Enter ICAO airport designator
Station Type Date Time Source
LFMK METAR 2019/06/16 05:00 UTC NOAA

LFMK 160500Z AUTO VRB02KT CAVOK 10/10 Q1022 NOSIG


Station Type Date Time Source
LFMK Decoded METAR 2019/06/16 05:00 UTC NOAA

Carcassonne, France (LFMK) 43-13N 002-19E 130M
Jun 16, 2019 - 01:00 AM EDT / 2019.06.16 0500 UTC
Wind: Variable at 2 MPH (2 KT):0
Visibility: greater than 7 mile(s):0
Temperature: 50 F (10 C)
Dew Point: 50 F (10 C)
Relative Humidity: 100%
Pressure (altimeter): 30.18 in. Hg (1022 hPa)
ob: LFMK 160500Z AUTO VRB02KT CAVOK 10/10 Q1022 NOSIG
cycle: 5

Station Type Date Time Source
LFMK TAF 2019/06/16 03:56 UTC NOAA

TAF LFMK 160200Z 1603/1703 28010KT CAVOK
TEMPO 1611/1615 32010G20KT

Example: see airport list